Time;durP1;ratioP1;P1;durP2;ratioP2;P2;SDS_P1;SDS_P2;PMS_P1;PMS_P2;Temp;Humidity;BMP_temperature;BMP_pressure;BME280_temperature;BME280_humidity;BME280_pressure;Samples;Min_cycle;Max_cycle;Signal;HPM_P1;HPM_P2
2022/10/15 00:00:48;;;;;;;51.67;35.63;;;17.70;89.80;;;;;;6369024;22;20002;-81
2022/10/15 00:03:14;;;;;;;44.95;33.22;;;17.70;90.00;;;;;;6341703;22;20022;-83
2022/10/15 00:05:41;;;;;;;53.08;35.67;;;17.70;90.00;;;;;;6342303;22;20006;-82
2022/10/15 00:08:09;;;;;;;49.83;33.40;;;17.70;89.80;;;;;;6369834;22;20002;-81
2022/10/15 00:10:36;;;;;;;49.67;33.90;;;17.70;90.00;;;;;;6369205;22;20081;-81
2022/10/15 00:13:03;;;;;;;46.38;34.03;;;17.70;89.90;;;;;;6369132;22;20035;-82
2022/10/15 00:15:28;;;;;;;47.05;31.63;;;17.70;89.80;;;;;;6369135;22;19995;-81
2022/10/15 00:17:54;;;;;;;44.85;31.77;;;17.70;89.20;;;;;;6369245;22;19998;-81
2022/10/15 00:20:21;;;;;;;43.88;30.92;;;17.80;88.80;;;;;;6369427;22;20063;-81
2022/10/15 00:22:47;;;;;;;38.88;28.58;;;17.90;89.00;;;;;;6342553;22;20451;-84
2022/10/15 00:25:12;;;;;;;36.60;25.58;;;17.90;88.90;;;;;;6369295;22;19998;-83
2022/10/15 00:27:38;;;;;;;39.00;28.85;;;17.90;88.10;;;;;;6370120;22;19999;-83
2022/10/15 00:30:05;;;;;;;37.65;27.40;;;17.90;87.80;;;;;;6369184;22;20014;-83
2022/10/15 00:32:31;;;;;;;39.75;27.92;;;18.00;87.70;;;;;;6369653;22;19998;-82
2022/10/15 00:34:56;;;;;;;39.35;25.15;;;18.00;87.10;;;;;;6369585;22;20002;-82
2022/10/15 00:37:22;;;;;;;37.05;26.17;;;18.10;87.10;;;;;;6369856;22;20366;-81
2022/10/15 00:39:49;;;;;;;36.25;24.55;;;18.10;87.10;;;;;;6368189;22;19994;-81
2022/10/15 00:42:15;;;;;;;34.35;26.35;;;18.10;86.90;;;;;;6368900;22;19998;-81
2022/10/15 00:44:56;;;;;;;39.58;28.70;;;18.10;86.40;;;;;;6369365;22;20076;-81
2022/10/15 00:47:39;;;;;;;42.55;28.92;;;18.00;86.40;;;;;;6344062;22;20478;-81
2022/10/15 00:50:15;;;;;;;39.40;29.10;;;17.80;87.10;;;;;;6372036;22;20012;-81
2022/10/15 00:53:10;;;;;;;41.08;29.98;;;17.60;87.80;;;;;;6372860;22;20007;-81
2022/10/15 00:55:40;;;;;;;42.55;28.77;;;17.60;88.30;;;;;;6337938;22;20093;-81
2022/10/15 00:58:12;;;;;;;40.63;28.65;;;17.50;88.50;;;;;;6372081;22;20099;-81
2022/10/15 01:00:38;;;;;;;37.40;25.10;;;17.50;88.30;;;;;;6371314;22;20002;-81
2022/10/15 01:03:03;;;;;;;43.22;28.50;;;17.60;88.30;;;;;;6371411;22;20443;-81
2022/10/15 01:05:30;;;;;;;41.75;29.25;;;17.60;87.70;;;;;;6370678;22;20007;-81
2022/10/15 01:07:56;;;;;;;38.25;29.13;;;17.50;87.70;;;;;;6371034;22;20002;-80
2022/10/15 01:10:27;;;;;;;40.08;29.58;;;17.40;87.60;;;;;;6342048;22;20378;-80
2022/10/15 01:12:59;;;;;;;36.85;26.42;;;17.40;88.20;;;;;;6342686;22;20007;-81
2022/10/15 01:15:42;;;;;;;38.28;26.52;;;17.40;88.00;;;;;;6371271;22;20006;-81
2022/10/15 01:18:16;;;;;;;47.28;29.08;;;17.50;87.70;;;;;;6371155;22;20002;-81
2022/10/15 01:21:17;;;;;;;33.40;24.02;;;17.60;87.30;;;;;;6371162;22;20021;-80
2022/10/15 01:23:46;;;;;;;40.40;27.38;;;17.70;87.40;;;;;;6343191;22;20002;-81
2022/10/15 01:26:40;;;;;;;35.63;24.38;;;17.70;86.70;;;;;;6371416;22;20530;-81
2022/10/15 01:29:49;;;;;;;36.08;24.83;;;17.70;86.50;;;;;;6314479;22;20406;-81
2022/10/15 01:32:28;;;;;;;39.85;27.00;;;17.80;86.60;;;;;;6370731;22;20009;-81
2022/10/15 01:35:12;;;;;;;39.08;26.13;;;17.70;86.30;;;;;;6370670;22;19994;-80
2022/10/15 01:37:47;;;;;;;37.03;26.95;;;17.70;85.70;;;;;;6371514;22;20005;-80
2022/10/15 01:40:37;;;;;;;37.22;26.42;;;17.80;85.80;;;;;;6341765;22;20036;-80
2022/10/15 01:43:10;;;;;;;35.47;24.50;;;17.70;85.30;;;;;;6371602;22;20055;-80
2022/10/15 01:45:41;;;;;;;41.22;27.42;;;17.70;85.10;;;;;;6370562;22;20376;-80
2022/10/15 01:48:10;;;;;;;39.15;26.52;;;17.70;85.50;;;;;;6371593;22;20021;-80
2022/10/15 01:50:42;;;;;;;39.53;27.80;;;17.60;85.10;;;;;;6369796;22;20036;-80
2022/10/15 01:53:10;;;;;;;35.10;24.90;;;17.60;85.30;;;;;;6370974;22;20002;-80
2022/10/15 01:55:39;;;;;;;36.22;25.77;;;17.60;85.40;;;;;;6336952;22;20007;-80
2022/10/15 01:58:07;;;;;;;41.58;25.98;;;17.60;85.30;;;;;;6337764;22;20002;-80
2022/10/15 02:00:33;;;;;;;42.05;25.48;;;17.60;84.80;;;;;;6337384;22;19995;-79
2022/10/15 02:03:03;;;;;;;32.67;23.90;;;17.50;84.90;;;;;;6339174;22;20451;-79
2022/10/15 02:05:41;;;;;;;31.70;24.63;;;17.50;85.20;;;;;;6339342;22;20003;-80
2022/10/15 02:08:31;;;;;;;37.35;25.10;;;17.60;85.40;;;;;;6338529;22;20003;-80
2022/10/15 02:11:09;;;;;;;35.42;24.77;;;17.60;85.00;;;;;;6337055;22;20038;-82
2022/10/15 02:13:59;;;;;;;32.15;23.42;;;17.60;84.70;;;;;;6339112;22;20007;-81
2022/10/15 02:16:36;;;;;;;35.97;25.27;;;17.60;84.60;;;;;;6339248;22;19999;-81
2022/10/15 02:19:06;;;;;;;43.05;24.65;;;17.60;84.60;;;;;;6338764;22;20302;-81
2022/10/15 02:21:44;;;;;;;35.40;25.83;;;17.60;85.00;;;;;;6339310;22;20015;-81
2022/10/15 02:24:20;;;;;;;39.67;27.60;;;17.50;84.80;;;;;;6339496;22;20003;-81
2022/10/15 02:26:46;;;;;;;37.35;25.40;;;17.40;85.30;;;;;;6339193;22;20363;-81
2022/10/15 02:29:18;;;;;;;37.65;26.23;;;17.40;85.60;;;;;;6337464;22;20421;-81
2022/10/15 02:31:46;;;;;;;34.92;26.50;;;17.50;85.80;;;;;;6338109;22;20086;-82
2022/10/15 02:34:17;;;;;;;37.13;25.63;;;17.40;85.50;;;;;;6339820;22;20003;-82
2022/10/15 02:36:43;;;;;;;38.90;26.70;;;17.40;84.70;;;;;;6340047;22;20344;-82
2022/10/15 02:39:13;;;;;;;40.13;25.30;;;17.20;85.00;;;;;;6338761;22;20419;-81
2022/10/15 02:41:39;;;;;;;36.95;25.02;;;17.20;85.50;;;;;;6339734;22;20038;-81
2022/10/15 02:44:05;;;;;;;35.92;25.48;;;17.30;85.80;;;;;;6338813;22;20305;-82
2022/10/15 02:46:31;;;;;;;37.00;25.15;;;17.20;85.70;;;;;;6339025;22;20003;-82
2022/10/15 02:48:56;;;;;;;33.72;24.60;;;17.20;85.40;;;;;;6338377;22;20009;-82
2022/10/15 02:51:22;;;;;;;34.53;23.80;;;17.10;85.70;;;;;;6339397;22;20026;-82
2022/10/15 02:53:48;;;;;;;35.63;25.10;;;17.10;85.40;;;;;;6339225;22;20002;-82
2022/10/15 02:56:14;;;;;;;31.02;22.02;;;17.10;85.50;;;;;;6337984;22;20018;-81
2022/10/15 02:58:40;;;;;;;33.00;23.17;;;17.20;85.60;;;;;;6337764;22;20078;-82
2022/10/15 03:01:06;;;;;;;31.38;24.02;;;17.30;85.50;;;;;;6339465;22;20375;-81
2022/10/15 03:03:32;;;;;;;32.55;23.30;;;17.40;84.90;;;;;;6337241;22;20003;-83
2022/10/15 03:05:58;;;;;;;33.88;22.40;;;17.50;84.60;;;;;;6340172;22;19995;-84
2022/10/15 03:08:24;;;;;;;30.67;22.55;;;17.60;84.40;;;;;;6338503;22;20007;-82
2022/10/15 03:10:50;;;;;;;32.78;23.42;;;17.60;84.40;;;;;;6338613;22;20003;-83
2022/10/15 03:13:22;;;;;;;28.90;20.75;;;17.60;84.50;;;;;;6338465;22;20003;-82
2022/10/15 03:15:48;;;;;;;33.05;21.60;;;17.60;83.90;;;;;;6338605;22;20053;-81
2022/10/15 03:18:13;;;;;;;32.88;21.25;;;17.70;84.00;;;;;;6338833;22;20405;-83
2022/10/15 03:20:40;;;;;;;31.90;23.40;;;17.80;83.30;;;;;;6339015;22;20006;-81
2022/10/15 03:23:05;;;;;;;35.20;23.48;;;17.70;82.20;;;;;;6338950;22;20078;-81
2022/10/15 03:25:31;;;;;;;33.33;23.52;;;17.70;82.30;;;;;;6338197;22;20065;-81
2022/10/15 03:27:57;;;;;;;30.67;22.85;;;17.70;81.90;;;;;;6339426;22;20003;-81
2022/10/15 03:30:23;;;;;;;31.08;23.30;;;17.70;82.20;;;;;;6336611;22;20077;-81
2022/10/15 03:32:48;;;;;;;33.35;23.73;;;17.60;82.50;;;;;;6339181;22;19999;-81
2022/10/15 03:35:14;;;;;;;31.27;21.42;;;17.60;82.50;;;;;;6338384;22;20044;-81
2022/10/15 03:37:40;;;;;;;34.45;24.15;;;17.70;82.60;;;;;;6339221;22;20006;-82
2022/10/15 03:40:06;;;;;;;34.55;25.55;;;17.60;82.30;;;;;;6338099;22;19998;-80
2022/10/15 03:42:32;;;;;;;33.17;23.85;;;17.50;82.30;;;;;;6338165;22;20003;-80
2022/10/15 03:44:57;;;;;;;35.92;25.75;;;17.40;82.70;;;;;;6336354;22;20013;-81
2022/10/15 03:47:24;;;;;;;33.17;24.48;;;17.30;83.50;;;;;;6337833;22;19998;-80
2022/10/15 03:49:49;;;;;;;34.47;23.63;;;17.20;83.50;;;;;;6335920;22;20045;-80
2022/10/15 03:52:15;;;;;;;33.47;23.45;;;17.20;83.70;;;;;;6338224;22;20410;-80
2022/10/15 03:54:41;;;;;;;34.53;23.35;;;17.30;83.70;;;;;;6337495;22;19999;-80
2022/10/15 03:57:07;;;;;;;39.17;24.23;;;17.30;83.10;;;;;;6370489;22;20059;-80
2022/10/15 03:59:32;;;;;;;38.63;24.27;;;17.20;83.80;;;;;;6369046;22;20034;-80
2022/10/15 04:02:01;;;;;;;30.20;21.10;;;17.30;83.90;;;;;;6370131;22;20380;-84
2022/10/15 04:04:30;;;;;;;31.65;23.27;;;17.30;84.50;;;;;;6342116;22;20007;-80
2022/10/15 04:06:59;;;;;;;35.30;24.30;;;17.40;84.20;;;;;;6342314;22;20045;-80
2022/10/15 04:09:27;;;;;;;38.55;25.13;;;17.40;84.30;;;;;;6342222;22;20030;-81
2022/10/15 04:11:54;;;;;;;34.22;24.50;;;17.30;84.20;;;;;;6370562;22;20003;-80
2022/10/15 04:14:37;;;;;;;31.58;23.30;;;17.20;85.20;;;;;;6369515;22;20002;-79
2022/10/15 04:17:06;;;;;;;37.67;25.75;;;17.30;85.40;;;;;;6369872;22;20463;-79
2022/10/15 04:19:35;;;;;;;36.05;26.25;;;17.20;85.50;;;;;;6368756;22;19998;-80
2022/10/15 04:22:02;;;;;;;38.92;25.73;;;17.10;86.00;;;;;;6341465;22;20010;-80
2022/10/15 04:24:28;;;;;;;39.78;26.85;;;17.10;86.40;;;;;;6369197;22;19998;-79
2022/10/15 04:27:03;;;;;;;34.58;25.77;;;17.10;86.70;;;;;;6341945;22;20031;-80
2022/10/15 04:29:29;;;;;;;35.25;25.95;;;17.10;86.90;;;;;;6341094;22;20002;-80
2022/10/15 04:31:57;;;;;;;33.67;24.98;;;17.00;87.10;;;;;;6369715;22;20005;-80
2022/10/15 04:34:29;;;;;;;39.63;26.25;;;17.00;87.80;;;;;;6340448;22;20028;-80
2022/10/15 04:37:02;;;;;;;35.75;26.85;;;16.90;87.40;;;;;;6368975;22;20020;-79
2022/10/15 04:39:28;;;;;;;42.03;28.77;;;16.90;87.70;;;;;;6368801;22;20025;-80
2022/10/15 04:41:53;;;;;;;41.97;28.02;;;16.90;88.00;;;;;;6369009;22;20002;-81
2022/10/15 04:44:19;;;;;;;36.83;25.85;;;16.80;88.00;;;;;;6368457;22;20328;-82
2022/10/15 04:46:45;;;;;;;41.45;28.50;;;16.80;87.90;;;;;;6369591;22;20010;-81
2022/10/15 04:49:10;;;;;;;38.97;26.80;;;16.80;88.20;;;;;;6341291;22;20131;-82
2022/10/15 04:51:36;;;;;;;42.70;28.38;;;16.80;88.00;;;;;;6369502;22;19999;-85
2022/10/15 04:54:02;;;;;;;42.15;26.85;;;16.80;88.60;;;;;;6369337;22;20381;-87
2022/10/15 04:56:28;;;;;;;38.50;27.95;;;16.70;88.80;;;;;;6342687;22;20010;-88
2022/10/15 04:58:54;;;;;;;37.20;27.10;;;16.80;88.70;;;;;;6370860;22;20052;-89
2022/10/15 05:01:20;;;;;;;43.60;27.00;;;16.80;88.50;;;;;;6371170;22;20547;-88
2022/10/15 05:03:47;;;;;;;42.30;28.83;;;16.80;88.60;;;;;;6371493;22;20022;-88
2022/10/15 05:06:18;;;;;;;45.33;28.52;;;16.80;88.60;;;;;;6371407;22;19998;-90
2022/10/15 05:08:45;;;;;;;40.70;26.88;;;16.70;88.80;;;;;;6343387;22;20053;-90
2022/10/15 05:11:24;;;;;;;39.58;26.65;;;16.70;88.60;;;;;;6343613;22;19999;-89
2022/10/15 05:13:50;;;;;;;42.20;28.10;;;16.70;88.60;;;;;;6371344;22;20069;-90
2022/10/15 05:16:22;;;;;;;40.45;28.13;;;16.60;88.70;;;;;;6343284;22;20003;-87
2022/10/15 05:18:50;;;;;;;43.03;28.40;;;16.60;89.40;;;;;;6342775;22;20085;-87
2022/10/15 05:21:16;;;;;;;44.03;29.17;;;16.60;89.30;;;;;;6369964;22;19995;-88
2022/10/15 05:23:43;;;;;;;41.50;26.77;;;16.50;89.70;;;;;;6370862;22;20082;-88
2022/10/15 05:26:13;;;;;;;40.85;28.30;;;16.50;89.90;;;;;;6370743;22;19998;-89
2022/10/15 05:28:39;;;;;;;41.55;28.80;;;16.50;89.60;;;;;;6343042;22;20002;-86
2022/10/15 05:31:14;;;;;;;37.83;26.60;;;16.50;90.00;;;;;;6369695;22;20051;-88
2022/10/15 05:33:41;;;;;;;38.78;27.90;;;16.50;90.10;;;;;;6371740;22;19999;-82
2022/10/15 05:36:18;;;;;;;37.03;26.15;;;16.50;90.00;;;;;;6342544;22;20007;-87
2022/10/15 05:38:57;;;;;;;35.38;23.98;;;16.60;89.90;;;;;;6372166;22;19999;-87
2022/10/15 05:41:24;;;;;;;38.92;27.25;;;16.60;89.90;;;;;;6372263;22;20425;-88
2022/10/15 05:43:51;;;;;;;36.22;26.00;;;16.60;89.80;;;;;;6371452;22;20069;-88
2022/10/15 05:46:18;;;;;;;41.90;26.88;;;16.60;89.70;;;;;;6370775;22;20002;-87
2022/10/15 05:48:50;;;;;;;39.30;25.90;;;16.60;89.70;;;;;;6371502;22;20009;-87
2022/10/15 05:51:16;;;;;;;39.22;27.77;;;16.60;89.80;;;;;;6343403;22;20002;-88
2022/10/15 05:53:44;;;;;;;31.15;21.95;;;16.60;89.90;;;;;;6343065;22;20002;-88
2022/10/15 05:56:11;;;;;;;33.58;24.05;;;16.70;89.70;;;;;;6370023;22;20313;-84
2022/10/15 05:58:37;;;;;;;33.67;23.80;;;16.80;89.60;;;;;;6371242;22;20470;-90
2022/10/15 06:01:05;;;;;;;36.55;25.92;;;16.90;89.50;;;;;;6371645;22;19998;-89
2022/10/15 06:03:31;;;;;;;37.83;25.13;;;17.00;89.10;;;;;;6344109;22;20045;-89
2022/10/15 06:05:57;;;;;;;36.60;24.52;;;17.10;88.70;;;;;;6343213;22;20009;-86
2022/10/15 06:08:23;;;;;;;38.20;25.52;;;17.10;88.50;;;;;;6370830;22;20021;-85
2022/10/15 06:10:52;;;;;;;40.42;26.02;;;17.10;88.20;;;;;;6371528;22;19999;-86
2022/10/15 06:13:18;;;;;;;42.50;28.05;;;17.10;88.20;;;;;;6369956;22;20453;-85
2022/10/15 06:15:44;;;;;;;37.70;26.00;;;17.00;88.50;;;;;;6343352;22;20043;-87
2022/10/15 06:18:14;;;;;;;35.45;24.30;;;16.90;88.80;;;;;;6370698;22;20025;-85
2022/10/15 06:20:41;;;;;;;34.17;24.23;;;16.90;89.20;;;;;;6371393;22;19999;-86
2022/10/15 06:23:08;;;;;;;36.70;26.08;;;16.90;89.10;;;;;;6370903;22;20003;-91
2022/10/15 06:25:33;;;;;;;35.72;26.05;;;17.00;88.70;;;;;;6370812;22;20420;-82
2022/10/15 06:28:03;;;;;;;35.50;26.50;;;17.00;88.80;;;;;;6371429;22;20020;-86
2022/10/15 06:30:29;;;;;;;35.08;25.70;;;17.00;88.40;;;;;;6370334;22;20083;-84
2022/10/15 06:32:56;;;;;;;34.85;25.17;;;17.00;88.40;;;;;;6370154;22;19998;-81
2022/10/15 06:35:22;;;;;;;40.95;27.23;;;17.00;88.70;;;;;;6368435;22;20010;-81
2022/10/15 06:37:48;;;;;;;39.35;27.70;;;17.00;88.30;;;;;;6366758;22;20009;-83
2022/10/15 06:40:15;;;;;;;42.00;28.35;;;17.00;88.70;;;;;;6368383;22;20054;-80
2022/10/15 06:42:41;;;;;;;39.47;26.65;;;17.00;88.70;;;;;;6368867;22;20436;-84
2022/10/15 06:45:09;;;;;;;39.97;26.98;;;16.90;88.60;;;;;;6343487;22;20002;-84
2022/10/15 06:47:34;;;;;;;40.00;28.33;;;16.90;89.00;;;;;;6371298;22;20009;-86
2022/10/15 06:50:01;;;;;;;40.58;25.70;;;16.90;89.10;;;;;;6370372;22;19998;-84
2022/10/15 06:52:29;;;;;;;38.03;27.33;;;16.90;89.20;;;;;;6343365;22;20048;-82
2022/10/15 06:54:54;;;;;;;40.40;27.50;;;16.90;89.10;;;;;;6370159;22;20089;-82
2022/10/15 06:57:20;;;;;;;34.97;25.85;;;16.90;89.30;;;;;;6369643;22;20417;-82
2022/10/15 06:59:45;;;;;;;38.58;26.13;;;16.90;89.40;;;;;;6341565;22;20417;-82
2022/10/15 07:02:13;;;;;;;51.13;28.13;;;17.00;89.10;;;;;;6368660;22;20002;-83
2022/10/15 07:04:39;;;;;;;39.67;27.20;;;17.00;88.80;;;;;;6369622;22;20047;-83
2022/10/15 07:07:05;;;;;;;40.33;26.98;;;17.00;87.70;;;;;;6369892;22;20044;-82
2022/10/15 07:09:31;;;;;;;35.50;25.90;;;17.10;88.30;;;;;;6369679;22;19998;-83
2022/10/15 07:11:57;;;;;;;36.22;24.92;;;17.10;86.80;;;;;;6370716;22;20007;-82
2022/10/15 07:14:23;;;;;;;35.67;25.65;;;17.20;87.50;;;;;;6371041;22;19998;-82
2022/10/15 07:16:49;;;;;;;36.05;25.77;;;17.30;87.20;;;;;;6370611;22;19994;-82
2022/10/15 07:19:14;;;;;;;38.38;26.45;;;17.30;87.00;;;;;;6370178;22;20078;-82
2022/10/15 07:21:40;;;;;;;36.00;25.85;;;17.40;85.30;;;;;;6370775;22;20354;-83
2022/10/15 07:24:06;;;;;;;42.28;25.52;;;17.40;85.20;;;;;;6369704;22;20005;-83
2022/10/15 07:26:31;;;;;;;36.45;26.27;;;17.40;85.70;;;;;;6370440;22;20383;-83
2022/10/15 07:28:57;;;;;;;33.53;25.63;;;17.50;85.10;;;;;;6341826;22;20013;-83
2022/10/15 07:31:23;;;;;;;31.17;23.05;;;17.60;85.10;;;;;;6370445;22;19998;-82
2022/10/15 07:33:48;;;;;;;37.30;25.38;;;17.80;85.10;;;;;;6370411;22;20002;-81
2022/10/15 07:36:14;;;;;;;41.88;24.85;;;17.90;83.50;;;;;;6370314;22;20081;-82
2022/10/15 07:38:40;;;;;;;36.30;26.25;;;18.00;83.70;;;;;;6367881;22;19999;-80
2022/10/15 07:41:08;;;;;;;34.60;24.38;;;18.10;82.40;;;;;;6370660;22;20025;-81
2022/10/15 07:43:35;;;;;;;34.00;24.73;;;18.20;82.30;;;;;;6370092;22;20029;-81
2022/10/15 07:46:02;;;;;;;27.50;22.27;;;18.30;82.90;;;;;;6370609;22;20304;-81
2022/10/15 07:48:27;;;;;;;29.63;20.65;;;18.40;82.60;;;;;;6369949;22;20006;-81
2022/10/15 07:50:58;;;;;;;31.13;23.20;;;18.60;82.00;;;;;;6370284;22;19999;-81
2022/10/15 07:53:24;;;;;;;31.75;24.95;;;18.80;80.70;;;;;;6369931;22;20006;-81
2022/10/15 07:55:50;;;;;;;37.35;25.63;;;18.80;80.90;;;;;;6370015;22;20002;-82
2022/10/15 07:58:17;;;;;;;28.70;20.80;;;18.80;81.10;;;;;;6370323;22;19998;-81
2022/10/15 08:00:42;;;;;;;33.83;23.33;;;18.90;80.90;;;;;;6369850;22;20002;-81
2022/10/15 08:03:08;;;;;;;38.13;25.95;;;19.00;81.10;;;;;;6370171;22;20467;-81
2022/10/15 08:05:34;;;;;;;33.88;23.15;;;19.00;80.00;;;;;;6370530;22;20006;-81
2022/10/15 08:07:59;;;;;;;32.80;24.90;;;19.10;80.50;;;;;;6370312;22;20163;-81
2022/10/15 08:10:26;;;;;;;29.33;20.73;;;19.30;80.30;;;;;;6370499;22;19999;-81
2022/10/15 08:12:52;;;;;;;29.15;21.42;;;19.40;80.40;;;;;;6338321;22;20017;-80
2022/10/15 08:15:18;;;;;;;31.50;23.60;;;19.50;79.90;;;;;;6337682;22;20036;-80
2022/10/15 08:17:44;;;;;;;28.60;21.35;;;19.60;78.50;;;;;;6367374;22;20047;-79
2022/10/15 08:20:11;;;;;;;37.10;26.25;;;19.70;78.90;;;;;;6340433;22;20081;-80
2022/10/15 08:22:37;;;;;;;36.30;25.40;;;19.70;78.00;;;;;;6369153;22;19998;-82
2022/10/15 08:25:03;;;;;;;35.88;27.02;;;19.70;78.30;;;;;;6367162;22;20445;-81
2022/10/15 08:27:29;;;;;;;38.72;25.67;;;19.60;78.20;;;;;;6368205;22;20351;-81
2022/10/15 08:29:55;;;;;;;30.77;20.85;;;19.50;78.50;;;;;;6368512;22;20005;-79
2022/10/15 08:32:20;;;;;;;34.00;26.40;;;19.50;79.10;;;;;;6362930;22;20014;-79
2022/10/15 08:34:46;;;;;;;32.55;25.00;;;19.60;78.50;;;;;;6364906;22;20309;-79
2022/10/15 08:37:12;;;;;;;30.50;21.70;;;19.60;78.40;;;;;;6367623;22;20409;-79
2022/10/15 08:39:37;;;;;;;29.33;21.05;;;19.70;79.10;;;;;;6340800;22;20009;-78
2022/10/15 08:42:17;;;;;;;27.60;20.20;;;19.90;78.90;;;;;;6368223;22;20033;-79
2022/10/15 08:45:00;;;;;;;28.03;18.93;;;20.10;78.20;;;;;;6340987;22;20439;-83
2022/10/15 08:47:33;;;;;;;31.20;23.10;;;20.30;78.10;;;;;;6368327;22;20299;-83
2022/10/15 08:50:02;;;;;;;28.50;20.77;;;20.40;76.00;;;;;;6368215;22;20009;-82
2022/10/15 08:52:27;;;;;;;32.70;24.45;;;20.50;76.00;;;;;;6366669;22;20005;-82
2022/10/15 08:54:55;;;;;;;28.42;21.15;;;20.50;74.80;;;;;;6366057;22;20002;-82
2022/10/15 08:57:44;;;;;;;25.05;19.15;;;20.50;75.50;;;;;;6339439;22;20002;-83
2022/10/15 09:00:22;;;;;;;27.15;19.90;;;20.70;75.40;;;;;;6338811;22;20530;-83
2022/10/15 09:03:30;;;;;;;34.67;25.88;;;20.80;75.00;;;;;;6368462;22;19998;-83
2022/10/15 09:06:18;;;;;;;32.92;23.05;;;20.90;73.90;;;;;;6367857;22;20012;-82
2022/10/15 09:08:50;;;;;;;29.20;23.08;;;20.90;74.10;;;;;;6369376;22;20064;-82
2022/10/15 09:11:35;;;;;;;29.17;21.77;;;21.00;73.90;;;;;;6341035;22;20029;-82
2022/10/15 09:14:02;;;;;;;30.65;22.75;;;21.00;74.40;;;;;;6368698;22;20006;-82
2022/10/15 09:16:34;;;;;;;35.45;22.45;;;21.00;74.10;;;;;;6370788;22;20002;-82
2022/10/15 09:19:05;;;;;;;27.75;21.23;;;21.00;74.80;;;;;;6370400;22;20060;-82
2022/10/15 09:21:34;;;;;;;30.05;23.58;;;21.00;75.50;;;;;;6369975;22;20040;-82
2022/10/15 09:24:03;;;;;;;30.80;22.50;;;21.00;74.20;;;;;;6370292;22;20006;-79
2022/10/15 09:26:38;;;;;;;30.03;21.33;;;21.10;74.80;;;;;;6370788;22;20013;-79
2022/10/15 09:29:20;;;;;;;29.45;22.67;;;21.10;75.60;;;;;;6370462;22;20002;-79
2022/10/15 09:32:00;;;;;;;30.00;23.33;;;21.10;75.40;;;;;;6370240;22;20006;-79
2022/10/15 09:34:39;;;;;;;32.28;24.35;;;21.10;74.90;;;;;;6370318;22;20018;-78
2022/10/15 09:37:20;;;;;;;29.55;23.75;;;21.00;74.00;;;;;;6370426;22;19994;-79
2022/10/15 09:39:59;;;;;;;33.53;23.55;;;21.00;74.80;;;;;;6342805;22;20469;-79
2022/10/15 09:42:29;;;;;;;34.28;22.92;;;21.00;74.20;;;;;;6371545;22;20017;-79
2022/10/15 09:45:00;;;;;;;26.67;20.50;;;21.00;74.30;;;;;;6370818;22;20010;-83
2022/10/15 09:47:29;;;;;;;27.13;18.98;;;21.20;75.10;;;;;;6343511;22;20034;-83
2022/10/15 09:49:55;;;;;;;25.45;19.92;;;21.50;74.90;;;;;;6371863;22;20002;-83
2022/10/15 09:52:44;;;;;;;28.70;20.52;;;21.80;75.10;;;;;;6370164;22;20103;-82
2022/10/15 09:55:27;;;;;;;25.08;18.00;;;22.00;74.10;;;;;;6370431;22;20073;-80
2022/10/15 09:57:55;;;;;;;27.88;21.38;;;22.30;73.60;;;;;;6370366;22;20085;-80
2022/10/15 10:00:21;;;;;;;32.80;23.75;;;22.40;71.50;;;;;;6371421;22;20459;-80
2022/10/15 10:03:05;;;;;;;39.05;24.17;;;22.40;69.80;;;;;;6342907;22;20003;-80
2022/10/15 10:05:34;;;;;;;30.05;22.50;;;22.50;69.90;;;;;;6343399;22;20044;-82
2022/10/15 10:08:20;;;;;;;28.50;19.92;;;22.50;69.70;;;;;;6371425;22;20135;-80
2022/10/15 10:11:00;;;;;;;26.75;18.85;;;22.60;70.80;;;;;;6371552;22;20033;-80
2022/10/15 10:13:50;;;;;;;26.33;19.08;;;22.90;71.00;;;;;;6368168;22;20011;-80
2022/10/15 10:16:18;;;;;;;22.73;17.67;;;23.20;70.80;;;;;;6371080;22;20003;-80
2022/10/15 10:18:59;;;;;;;28.55;18.85;;;23.40;70.60;;;;;;6369846;22;20001;-80
2022/10/15 10:21:32;;;;;;;26.08;17.95;;;23.60;69.00;;;;;;6366281;22;20005;-80
2022/10/15 10:24:29;;;;;;;23.17;17.58;;;23.80;69.00;;;;;;6370395;22;20022;-80
2022/10/15 10:26:56;;;;;;;24.35;17.58;;;23.90;67.50;;;;;;6370688;22;20074;-80
2022/10/15 10:29:24;;;;;;;28.63;19.80;;;24.10;68.40;;;;;;6370009;22;20053;-80
2022/10/15 10:31:51;;;;;;;27.05;17.88;;;24.30;67.40;;;;;;6370261;22;20003;-80
2022/10/15 10:34:23;;;;;;;28.85;20.10;;;24.40;66.60;;;;;;6369791;22;20048;-80
2022/10/15 10:36:51;;;;;;;49.88;27.85;;;24.60;66.30;;;;;;6342808;22;19999;-79
2022/10/15 10:39:31;;;;;;;37.67;23.55;;;24.50;64.30;;;;;;6370728;22;20060;-80
2022/10/15 10:41:59;;;;;;;34.53;24.42;;;24.50;66.20;;;;;;6342951;22;20003;-80
2022/10/15 10:44:36;;;;;;;27.40;19.60;;;24.50;65.40;;;;;;6368690;22;20006;-80
2022/10/15 10:47:14;;;;;;;23.23;16.63;;;24.60;65.90;;;;;;6368717;22;19999;-79
2022/10/15 10:50:24;;;;;;;33.05;19.48;;;24.80;66.50;;;;;;6369734;22;20417;-79
2022/10/15 10:52:49;;;;;;;29.15;19.52;;;25.00;65.50;;;;;;6370373;22;20009;-80
2022/10/15 10:55:23;;;;;;;27.95;18.65;;;25.10;65.10;;;;;;6369518;22;20404;-80
2022/10/15 10:57:55;;;;;;;27.50;19.58;;;25.10;64.50;;;;;;6370066;22;19994;-80
2022/10/15 11:00:28;;;;;;;38.10;19.75;;;25.20;65.00;;;;;;6369917;22;20002;-79
2022/10/15 11:02:54;;;;;;;31.15;22.17;;;25.30;64.20;;;;;;6369326;22;20021;-79
2022/10/15 11:05:25;;;;;;;27.95;19.02;;;25.40;63.50;;;;;;6341321;22;20017;-79
2022/10/15 11:08:05;;;;;;;33.88;23.20;;;25.50;64.10;;;;;;6369375;22;20006;-79
2022/10/15 11:10:57;;;;;;;33.20;20.30;;;25.20;62.60;;;;;;6369768;22;19998;-80
2022/10/15 11:14:16;;;;;;;35.60;23.98;;;25.10;65.70;;;;;;6298539;22;20017;-80
2022/10/15 11:16:55;;;;;;;35.45;22.63;;;25.30;65.80;;;;;;6367938;22;20003;-80
2022/10/15 11:19:27;;;;;;;29.13;22.00;;;25.50;63.50;;;;;;6369818;22;20024;-80
2022/10/15 11:22:17;;;;;;;34.35;25.20;;;25.70;65.20;;;;;;6369170;22;19998;-80
2022/10/15 11:25:03;;;;;;;31.23;21.55;;;25.90;63.20;;;;;;6369246;22;20008;-80
2022/10/15 11:28:02;;;;;;;31.17;21.98;;;26.00;62.90;;;;;;6342083;22;19999;-80
2022/10/15 11:30:48;;;;;;;29.92;20.85;;;26.40;63.20;;;;;;6341933;22;20048;-80
2022/10/15 11:33:22;;;;;;;29.50;21.55;;;26.70;62.00;;;;;;6369252;22;20047;-79
2022/10/15 11:36:17;;;;;;;33.33;22.88;;;27.10;62.20;;;;;;6368305;22;20475;-79
2022/10/15 11:38:51;;;;;;;26.50;22.45;;;27.40;61.00;;;;;;6367807;22;20021;-79
2022/10/15 11:41:42;;;;;;;36.90;26.95;;;27.60;60.00;;;;;;6367867;22;20002;-79
2022/10/15 11:44:29;;;;;;;39.67;28.88;;;27.60;59.90;;;;;;6368594;22;19998;-82
2022/10/15 11:47:12;;;;;;;35.08;24.42;;;27.40;59.60;;;;;;6367739;22;20033;-82
2022/10/15 11:49:59;;;;;;;38.22;29.60;;;27.70;60.50;;;;;;6369843;22;20074;-82
2022/10/15 11:53:05;;;;;;;38.72;27.58;;;27.80;59.00;;;;;;6369711;22;20140;-82
2022/10/15 11:55:40;;;;;;;38.50;29.33;;;28.00;59.00;;;;;;6369245;22;20014;-82
2022/10/15 11:58:27;;;;;;;37.60;27.45;;;27.90;57.20;;;;;;6369574;22;19995;-83
2022/10/15 12:00:59;;;;;;;39.40;27.90;;;28.20;58.90;;;;;;6370148;22;19991;-83
2022/10/15 12:03:32;;;;;;;36.25;25.90;;;28.30;57.90;;;;;;6340502;22;20040;-82
2022/10/15 12:06:08;;;;;;;37.85;28.65;;;28.50;56.80;;;;;;6369426;22;20014;-82
2022/10/15 12:08:37;;;;;;;37.47;26.95;;;28.70;56.20;;;;;;6369226;22;20005;-82
2022/10/15 12:11:42;;;;;;;37.13;28.35;;;28.60;56.90;;;;;;6341209;22;20036;-82
2022/10/15 12:14:26;;;;;;;39.10;27.40;;;28.40;56.70;;;;;;6368477;22;20077;-82
2022/10/15 12:17:17;;;;;;;36.15;28.05;;;28.20;59.00;;;;;;6340510;22;20460;-82
2022/10/15 12:19:59;;;;;;;38.45;27.63;;;28.00;59.30;;;;;;6368826;22;20436;-82
2022/10/15 12:22:39;;;;;;;37.08;28.50;;;28.00;58.70;;;;;;6368417;22;20037;-82
2022/10/15 12:25:26;;;;;;;32.83;28.42;;;27.90;58.60;;;;;;6368813;22;20463;-82
2022/10/15 12:28:19;;;;;;;38.70;27.88;;;27.80;59.50;;;;;;6340815;22;20002;-82
2022/10/15 12:31:05;;;;;;;43.50;32.17;;;27.60;58.40;;;;;;6324763;22;20092;-82
2022/10/15 12:33:38;;;;;;;37.35;27.98;;;27.70;58.90;;;;;;6366501;22;20002;-82
2022/10/15 12:36:20;;;;;;;35.88;27.05;;;27.60;59.20;;;;;;6341839;22;20077;-82
2022/10/15 12:39:20;;;;;;;33.42;25.23;;;27.70;60.00;;;;;;6369860;22;20044;-82
2022/10/15 12:41:47;;;;;;;40.25;27.52;;;27.70;59.50;;;;;;6368678;22;20003;-82
2022/10/15 12:44:39;;;;;;;44.25;31.35;;;27.60;59.40;;;;;;6339908;22;20009;-82
2022/10/15 12:47:09;;;;;;;38.90;28.77;;;27.30;59.20;;;;;;6361654;22;20067;-82
2022/10/15 12:49:41;;;;;;;39.55;28.67;;;27.10;60.50;;;;;;6369092;22;20446;-81
2022/10/15 12:52:44;;;;;;;36.05;27.67;;;26.90;59.70;;;;;;6369408;22;20028;-82